Time;durP1;ratioP1;P1;durP2;ratioP2;P2;SDS_P1;SDS_P2;PMS_P1;PMS_P2;Temp;Humidity;BMP_temperature;BMP_pressure;BME280_temperature;BME280_humidity;BME280_pressure;Samples;Min_cycle;Max_cycle;Signal;HPM_P1;HPM_P2
2023/04/13 00:04:32;;;;;;;3.33;1.92;;;;;;;-146.07;100.00;70291.31;10400215;28;20029;-68
2023/04/13 00:09:33;;;;;;;4.43;2.10;;;;;;;-146.07;100.00;70291.31;10406813;28;20083;-68
2023/04/13 00:14:33;;;;;;;5.67;1.67;;;;;;;-146.07;100.00;70291.31;10426440;28;20751;-68
2023/04/13 00:19:35;;;;;;;4.00;1.88;;;;;;;-146.07;100.00;70291.31;10425156;28;20303;-69
2023/04/13 00:24:36;;;;;;;6.43;2.78;;;;;;;-146.07;100.00;70291.31;10411616;28;20060;-69
2023/04/13 00:29:37;;;;;;;7.65;2.95;;;;;;;-146.07;100.00;70291.31;10384465;28;20415;-68
2023/04/13 00:34:37;;;;;;;6.63;2.38;;;;;;;-146.07;100.00;70291.31;10384576;28;20034;-68
2023/04/13 00:39:38;;;;;;;3.00;2.38;;;;;;;-146.07;100.00;70291.31;10408462;28;20372;-68
2023/04/13 00:44:38;;;;;;;3.10;1.97;;;;;;;-146.07;100.00;70291.31;10425212;28;20033;-69
2023/04/13 00:49:39;;;;;;;5.30;1.50;;;;;;;-146.07;100.00;70291.31;10424921;28;20761;-67
2023/04/13 00:54:41;;;;;;;1.98;1.15;;;;;;;-146.07;100.00;70291.31;10424361;28;20017;-69
2023/04/13 00:59:41;;;;;;;7.68;1.35;;;;;;;-146.07;100.00;70291.31;10407191;28;20063;-69
2023/04/13 01:04:48;;;;;;;2.42;1.73;;;;;;;-146.07;100.00;70291.31;10423123;28;20027;-69
2023/04/13 01:10:15;;;;;;;3.03;1.42;;;;;;;-146.07;100.00;70291.31;10406368;28;20035;-69
2023/04/13 01:15:17;;;;;;;3.40;1.30;;;;;;;-146.07;100.00;70291.31;10423869;28;20113;-69
2023/04/13 01:20:19;;;;;;;2.38;1.50;;;;;;;-146.07;100.00;70291.31;10423812;28;20024;-69
2023/04/13 01:25:49;;;;;;;4.10;2.60;;;;;;;-146.07;100.00;70291.31;10393638;28;20038;-69
2023/04/13 01:30:52;;;;;;;3.72;2.15;;;;;;;-146.07;100.00;70291.31;10391837;28;20025;-69
2023/04/13 01:35:53;;;;;;;7.15;1.90;;;;;;;-146.07;100.00;70291.31;10432196;28;20021;-68
2023/04/13 01:40:53;;;;;;;8.30;2.08;;;;;;;-146.07;100.00;70291.31;10422823;28;20114;-68
2023/04/13 01:46:03;;;;;;;4.15;2.00;;;;;;;-146.07;100.00;70291.31;10422532;28;20087;-69
2023/04/13 01:51:10;;;;;;;3.85;1.50;;;;;;;-146.07;100.00;70291.31;10420793;28;20027;-68
2023/04/13 01:56:11;;;;;;;2.83;1.45;;;;;;;-146.07;100.00;70291.31;10422387;28;20025;-68
2023/04/13 02:01:13;;;;;;;2.58;1.60;;;;;;;-146.07;100.00;70291.31;10421654;28;20028;-68
2023/04/13 02:06:14;;;;;;;5.00;1.60;;;;;;;-146.07;100.00;70291.31;10403912;28;20565;-68
2023/04/13 02:11:14;;;;;;;7.53;2.05;;;;;;;-146.07;100.00;70291.31;10421469;28;20488;-68
2023/04/13 02:16:16;;;;;;;4.25;2.80;;;;;;;-146.07;100.00;70291.31;10421589;28;20041;-68
2023/04/13 02:21:16;;;;;;;2.53;1.17;;;;;;;-146.07;100.00;70291.31;10421743;28;20119;-67
2023/04/13 02:26:17;;;;;;;1.65;1.25;;;;;;;-146.07;100.00;70291.31;10421305;28;20029;-67
2023/04/13 02:31:18;;;;;;;3.60;1.40;;;;;;;-146.07;100.00;70291.31;10420980;28;20035;-67
2023/04/13 02:36:20;;;;;;;5.20;2.38;;;;;;;-146.07;100.00;70291.31;10421085;28;20086;-67
2023/04/13 02:41:21;;;;;;;5.05;2.22;;;;;;;-146.07;100.00;70291.31;10420638;28;20036;-67
2023/04/13 02:46:22;;;;;;;3.60;1.92;;;;;;;-146.07;100.00;70291.31;10420024;28;20029;-68
2023/04/13 02:51:22;;;;;;;3.08;1.90;;;;;;;-146.07;100.00;70291.31;10420245;28;20036;-68
2023/04/13 02:56:26;;;;;;;5.97;2.00;;;;;;;-146.07;100.00;70291.31;10402246;28;20082;-68
2023/04/13 03:01:28;;;;;;;4.03;2.08;;;;;;;-146.07;100.00;70291.31;10418981;28;20039;-68
2023/04/13 03:06:30;;;;;;;3.17;1.98;;;;;;;-146.07;100.00;70291.31;10418912;28;20115;-68
2023/04/13 03:11:30;;;;;;;2.65;1.83;;;;;;;-146.07;100.00;70291.31;10419318;28;20146;-69
2023/04/13 03:16:30;;;;;;;10.07;2.85;;;;;;;-146.07;100.00;70291.31;10425956;28;20143;-67
2023/04/13 03:21:33;;;;;;;5.07;3.30;;;;;;;-146.07;100.00;70291.31;10428093;28;20037;-69
2023/04/13 03:26:33;;;;;;;7.85;3.47;;;;;;;-146.07;100.00;70291.31;10427234;28;20598;-68
2023/04/13 03:31:34;;;;;;;8.75;2.65;;;;;;;-146.07;100.00;70291.31;10427911;28;20033;-70
2023/04/13 03:36:35;;;;;;;10.32;3.67;;;;;;;-146.07;100.00;70291.31;10426850;28;20025;-69
2023/04/13 03:41:35;;;;;;;8.43;2.88;;;;;;;-146.07;100.00;70291.31;10426735;28;20106;-68
2023/04/13 03:46:36;;;;;;;12.65;3.58;;;;;;;-146.07;100.00;70291.31;10427182;28;20029;-68
2023/04/13 03:51:37;;;;;;;7.95;3.95;;;;;;;-146.07;100.00;70291.31;10413360;28;20105;-68
2023/04/13 03:56:37;;;;;;;11.13;4.68;;;;;;;-146.07;100.00;70291.31;10418701;28;20110;-68
2023/04/13 04:01:38;;;;;;;8.45;3.20;;;;;;;-146.07;100.00;70291.31;10420860;28;20036;-69
2023/04/13 04:06:38;;;;;;;18.52;4.47;;;;;;;-146.07;100.00;70291.31;10428915;28;20090;-67
2023/04/13 04:11:38;;;;;;;8.20;4.25;;;;;;;-146.07;100.00;70291.31;10412754;28;20036;-68
2023/04/13 04:16:39;;;;;;;9.27;4.25;;;;;;;-146.07;100.00;70291.31;10425432;28;20064;-68
2023/04/13 04:21:45;;;;;;;13.73;3.38;;;;;;;-146.07;100.00;70291.31;10396569;28;20029;-68
2023/04/13 04:26:48;;;;;;;13.52;5.82;;;;;;;-146.07;100.00;70291.31;10396731;28;20139;-69
2023/04/13 04:31:51;;;;;;;6.82;4.03;;;;;;;-146.07;100.00;70291.31;10426829;28;20033;-68
2023/04/13 04:36:52;;;;;;;9.63;6.28;;;;;;;-146.07;100.00;70291.31;10426024;28;20052;-69
2023/04/13 04:41:54;;;;;;;15.02;6.65;;;;;;;-146.07;100.00;70291.31;10402844;28;20029;-66
2023/04/13 04:46:54;;;;;;;13.20;5.68;;;;;;;-146.07;100.00;70291.31;10397712;28;20033;-67
2023/04/13 04:51:56;;;;;;;14.23;4.78;;;;;;;-146.07;100.00;70291.31;10417836;28;20033;-69
2023/04/13 04:57:00;;;;;;;14.25;5.68;;;;;;;-146.07;100.00;70291.31;10405561;28;20024;-68
2023/04/13 05:02:01;;;;;;;6.50;3.70;;;;;;;-146.07;100.00;70291.31;10415082;28;20641;-69
2023/04/13 05:07:01;;;;;;;10.10;3.63;;;;;;;-146.07;100.00;70291.31;10422912;28;20403;-67
2023/04/13 05:12:03;;;;;;;9.23;3.80;;;;;;;-146.07;100.00;70291.31;10389639;28;20716;-69
2023/04/13 05:17:04;;;;;;;9.80;3.88;;;;;;;-146.07;100.00;70291.31;10418137;28;20583;-68
2023/04/13 05:22:06;;;;;;;5.38;3.53;;;;;;;-146.07;100.00;70291.31;10424975;28;20430;-68
2023/04/13 05:27:08;;;;;;;11.70;3.50;;;;;;;-146.07;100.00;70291.31;10425083;28;20045;-67
2023/04/13 05:32:11;;;;;;;6.45;2.97;;;;;;;-146.07;100.00;70291.31;10420837;28;20056;-69
2023/04/13 05:37:13;;;;;;;10.65;3.35;;;;;;;-146.07;100.00;70291.31;10384978;28;20074;-69
2023/04/13 05:42:14;;;;;;;7.80;3.45;;;;;;;-146.07;100.00;70291.31;10423831;28;20037;-69
2023/04/13 05:47:15;;;;;;;10.68;3.50;;;;;;;-146.07;100.00;70291.31;10423104;28;20052;-69
2023/04/13 05:52:16;;;;;;;8.38;3.67;;;;;;;-146.07;100.00;70291.31;10423907;28;20403;-69
2023/04/13 05:57:19;;;;;;;10.57;3.97;;;;;;;-146.07;100.00;70291.31;10423064;28;20487;-68
2023/04/13 06:02:20;;;;;;;9.70;3.83;;;;;;;-146.07;100.00;70291.31;10427559;28;20383;-69
2023/04/13 06:07:24;;;;;;;6.87;3.30;;;;;;;-146.07;100.00;70291.31;10422713;28;20075;-68
2023/04/13 06:12:25;;;;;;;6.55;4.55;;;;;;;-146.07;100.00;70291.31;10422958;28;20271;-69
2023/04/13 06:17:26;;;;;;;6.93;3.28;;;;;;;-146.07;100.00;70291.31;10422859;28;20051;-70
2023/04/13 06:22:27;;;;;;;9.60;3.03;;;;;;;-146.07;100.00;70291.31;10422630;28;20033;-69
2023/04/13 06:27:28;;;;;;;5.40;2.80;;;;;;;-146.07;100.00;70291.31;10422190;28;20021;-69
2023/04/13 06:32:28;;;;;;;7.43;2.33;;;;;;;-146.07;100.00;70291.31;10422651;28;20032;-69
2023/04/13 06:37:29;;;;;;;13.02;3.05;;;;;;;-146.07;100.00;70291.31;10422360;28;20549;-68
2023/04/13 06:42:31;;;;;;;10.93;3.33;;;;;;;-146.07;100.00;70291.31;10421686;28;20052;-69
2023/04/13 06:47:31;;;;;;;10.93;2.80;;;;;;;-146.07;100.00;70291.31;10456538;28;20028;-69
2023/04/13 06:52:33;;;;;;;9.90;3.03;;;;;;;-146.07;100.00;70291.31;10437388;28;20139;-69
2023/04/13 06:57:33;;;;;;;10.68;3.05;;;;;;;18.72;32.88;94066.09;10421750;28;20041;-69
2023/04/13 07:02:34;;;;;;;11.50;4.15;;;;;;;19.00;100.00;70291.31;10421104;28;20487;-69
2023/04/13 07:07:35;;;;;;;16.65;3.72;;;;;;;-146.07;100.00;70291.31;10420840;28;20025;-69
2023/04/13 07:12:35;;;;;;;8.98;3.47;;;;;;;-146.07;100.00;70291.31;10421142;28;20029;-69
2023/04/13 07:17:36;;;;;;;14.05;3.80;;;;;;;-146.07;100.00;70291.31;10420332;28;20041;-68
2023/04/13 07:22:36;;;;;;;12.52;3.03;;;;;;;-146.07;100.00;70291.31;10420668;28;20052;-68
2023/04/13 07:27:37;;;;;;;10.00;4.63;;;;;;;-146.07;100.00;70291.31;10420667;28;20048;-70
2023/04/13 07:32:38;;;;;;;4.35;2.50;;;;;;;-146.07;100.00;70291.31;10420614;28;20452;-69
2023/04/13 07:37:41;;;;;;;10.02;2.72;;;;;;;-146.07;100.00;70291.31;10420705;28;20037;-70
2023/04/13 07:42:41;;;;;;;10.35;2.60;;;;;;;19.00;33.20;94073.59;10420240;28;20487;-69
2023/04/13 07:47:42;;;;;;;17.23;2.80;;;;;;;22.57;100.00;93663.19;10420688;28;20043;-69
2023/04/13 07:52:42;;;;;;;22.90;3.00;;;;;;;-146.07;100.00;70291.31;10420775;28;20083;-69
2023/04/13 07:57:43;;;;;;;11.88;2.88;;;;;;;-146.07;100.00;70291.31;10420468;28;20267;-69
2023/04/13 08:02:43;;;;;;;6.88;2.40;;;;;;;-146.07;100.00;70291.31;10426679;28;20552;-69
2023/04/13 08:07:45;;;;;;;10.85;2.95;;;;;;;-146.07;100.00;70291.31;10427595;28;20087;-69
2023/04/13 08:12:46;;;;;;;10.40;3.17;;;;;;;-146.07;100.00;70291.31;10427407;28;20434;-69
2023/04/13 08:17:46;;;;;;;8.02;2.28;;;;;;;-146.07;100.00;70291.31;10427906;28;20052;-69
2023/04/13 08:22:47;;;;;;;7.15;2.05;;;;;;;-146.07;100.00;70291.31;10427837;28;20071;-69
2023/04/13 08:27:47;;;;;;;5.20;2.63;;;;;;;-146.07;100.00;70291.31;10427490;28;20051;-69
2023/04/13 08:32:48;;;;;;;9.10;1.80;;;;;;;24.39;25.68;93997.75;10427397;28;20472;-68
2023/04/13 08:37:51;;;;;;;10.55;2.08;;;;;;;24.90;24.50;93998.91;10426817;28;20032;-70
2023/04/13 08:42:54;;;;;;;7.40;2.17;;;;;;;25.95;25.34;93996.63;10429200;28;20041;-68
2023/04/13 08:47:56;;;;;;;6.65;2.13;;;;;;;26.78;23.58;93980.22;10425999;28;20170;-69
2023/04/13 08:52:57;;;;;;;6.20;1.70;;;;;;;-146.07;100.00;70291.31;10426252;28;20083;-69
2023/04/13 08:58:02;;;;;;;7.35;2.63;;;;;;;-146.07;100.00;70291.31;10426499;28;20128;-69
2023/04/13 09:03:06;;;;;;;8.57;2.67;;;;;;;-146.07;100.00;70291.31;10425639;28;20819;-70
2023/04/13 09:08:08;;;;;;;12.30;2.10;;;;;;;-146.07;100.00;70291.31;10420529;28;20033;-68
2023/04/13 09:13:09;;;;;;;6.22;2.53;;;;;;;-146.07;100.00;70291.31;10424278;28;20077;-69
2023/04/13 09:18:09;;;;;;;9.13;2.90;;;;;;;-146.07;100.00;70291.31;10425492;28;20761;-68
2023/04/13 09:23:14;;;;;;;3.03;1.80;;;;;;;-146.07;100.00;70291.31;10425025;28;20046;-69
2023/04/13 09:28:18;;;;;;;8.35;2.30;;;;;;;-146.07;100.00;70291.31;10425073;28;20036;-68
2023/04/13 09:33:19;;;;;;;6.78;2.38;;;;;;;-146.07;100.00;70291.31;10424700;28;20098;-69
2023/04/13 09:38:30;;;;;;;7.72;2.65;;;;;;;-146.07;100.00;70291.31;10424745;28;20090;-69
2023/04/13 09:43:37;;;;;;;9.68;2.42;;;;;;;-146.07;100.00;70291.31;10413178;28;20554;-69
2023/04/13 09:48:38;;;;;;;5.40;2.42;;;;;;;-146.07;100.00;70291.31;10412162;28;20037;-69
2023/04/13 09:53:48;;;;;;;8.13;2.85;;;;;;;-146.07;100.00;70291.31;10423726;28;20037;-69
2023/04/13 09:58:52;;;;;;;13.38;2.95;;;;;;;-146.07;100.00;70291.31;10423122;28;20037;-68
2023/04/13 10:03:52;;;;;;;5.82;2.30;;;;;;;-146.07;100.00;70291.31;10423076;28;20033;-68
2023/04/13 10:08:53;;;;;;;5.60;2.45;;;;;;;-146.07;100.00;70291.31;10422800;28;20033;-69
2023/04/13 10:14:01;;;;;;;7.15;2.67;;;;;;;-146.07;100.00;70291.31;10404297;28;20024;-68
2023/04/13 10:19:19;;;;;;;16.23;3.53;;;;;;;-146.07;100.00;70291.31;10422515;28;20131;-69
2023/04/13 10:24:20;;;;;;;9.27;3.22;;;;;;;-146.07;100.00;70291.31;10421607;28;20120;-69
2023/04/13 10:29:28;;;;;;;9.70;3.10;;;;;;;-146.07;100.00;70291.31;10421750;28;20467;-68
2023/04/13 10:34:30;;;;;;;9.43;2.80;;;;;;;-146.07;100.00;70291.31;10421562;28;20102;-70
2023/04/13 10:39:33;;;;;;;9.63;4.05;;;;;;;-146.07;100.00;70291.31;10420548;28;20044;-69
2023/04/13 10:45:00;;;;;;;10.63;2.63;;;;;;;-146.07;100.00;70291.31;10421612;28;20043;-69
2023/04/13 10:50:00;;;;;;;26.85;20.65;;;;;;;-146.07;100.00;70291.31;10419638;28;20052;-68
2023/04/13 10:55:02;;;;;;;5.35;2.38;;;;;;;-146.07;100.00;70291.31;10421334;28;20024;-68
2023/04/13 11:00:02;;;;;;;9.13;2.30;;;;;;;-146.07;100.00;70291.31;10416946;28;20040;-69
2023/04/13 11:05:03;;;;;;;9.52;2.95;;;;;;;-146.07;100.00;70291.31;10396920;28;20124;-69
2023/04/13 11:10:05;;;;;;;6.43;2.20;;;;;;;-146.07;100.00;70291.31;10398638;28;20444;-68
2023/04/13 11:15:07;;;;;;;5.15;2.00;;;;;;;-146.07;100.00;70291.31;10393561;28;20017;-68
2023/04/13 11:20:10;;;;;;;11.05;2.78;;;;;;;-146.07;100.00;70291.31;10397527;28;20096;-69
2023/04/13 11:25:10;;;;;;;10.68;2.72;;;;;;;-146.07;100.00;70291.31;10390207;28;20062;-69
2023/04/13 11:30:12;;;;;;;4.85;2.63;;;;;;;-146.07;100.00;70291.31;10393689;28;20037;-68
2023/04/13 11:35:17;;;;;;;7.07;3.30;;;;;;;-146.07;100.00;70291.31;10398465;28;20021;-70
2023/04/13 11:40:21;;;;;;;5.80;2.42;;;;;;;-146.07;100.00;70291.31;10398184;28;20487;-68
2023/04/13 11:45:24;;;;;;;10.90;3.05;;;;;;;-146.07;100.00;70291.31;10408320;28;20448;-69
2023/04/13 11:50:25;;;;;;;6.32;2.60;;;;;;;-146.07;100.00;70291.31;10382811;28;20068;-69
2023/04/13 11:55:26;;;;;;;8.43;2.85;;;;;;;-146.07;100.00;70291.31;10407179;28;20029;-67
2023/04/13 12:00:26;;;;;;;6.05;2.60;;;;;;;-146.07;100.00;70291.31;10403938;28;20499;-69
2023/04/13 12:05:30;;;;;;;9.32;2.72;;;;;;;-146.07;100.00;70291.31;10405199;28;20828;-69
2023/04/13 12:10:35;;;;;;;9.93;3.20;;;;;;;-146.07;100.00;70291.31;10402170;28;20036;-70
2023/04/13 12:15:38;;;;;;;8.68;2.65;;;;;;;-146.07;100.00;70291.31;10397679;28;20045;-68
2023/04/13 12:20:42;;;;;;;3.47;2.38;;;;;;;-146.07;100.00;70291.31;10399026;28;20440;-68
2023/04/13 12:25:57;;;;;;;10.15;2.78;;;;;;;-146.07;100.00;70291.31;10398510;28;20037;-69
2023/04/13 12:31:06;;;;;;;11.40;3.25;;;;;;;-146.07;100.00;70291.31;10406237;28;20033;-69
2023/04/13 12:36:10;;;;;;;5.57;2.40;;;;;;;-146.07;100.00;70291.31;10403992;28;20036;-70
2023/04/13 12:41:10;;;;;;;6.60;2.35;;;;;;;-146.07;100.00;70291.31;10420550;28;20057;-69
2023/04/13 12:46:13;;;;;;;8.82;2.20;;;;;;;-146.07;100.00;70291.31;10426319;28;20041;-70
2023/04/13 12:51:14;;;;;;;11.68;3.28;;;;;;;-146.07;100.00;70291.31;10425904;28;20029;-69
2023/04/13 12:56:14;;;;;;;6.18;2.25;;;;;;;-146.07;100.00;70291.31;10425793;28;20025;-69
2023/04/13 13:01:15;;;;;;;4.10;2.22;;;;;;;-146.07;100.00;70291.31;10426724;28;20028;-68
2023/04/13 13:06:15;;;;;;;12.10;2.67;;;;;;;-146.07;100.00;70291.31;10425447;28;20017;-68
2023/04/13 13:11:16;;;;;;;10.48;2.47;;;;;;;-146.07;100.00;70291.31;10426417;28;20027;-69
2023/04/13 13:16:18;;;;;;;8.10;3.42;;;;;;;-146.07;100.00;70291.31;10424766;28;20045;-69
2023/04/13 13:21:18;;;;;;;10.32;3.17;;;;;;;-146.07;100.00;70291.31;10397589;28;20440;-69
2023/04/13 13:26:19;;;;;;;4.95;2.10;;;;;;;-146.07;100.00;70291.31;10423601;28;20040;-69
2023/04/13 13:31:20;;;;;;;6.68;2.97;;;;;;;-146.07;100.00;70291.31;10445795;28;20711;-68
2023/04/13 13:36:21;;;;;;;11.55;2.95;;;;;;;-146.07;100.00;70291.31;10439205;28;20503;-69
2023/04/13 13:41:22;;;;;;;4.43;1.90;;;;;;;-146.07;100.00;70291.31;10421053;28;20800;-69
2023/04/13 13:46:22;;;;;;;10.73;2.20;;;;;;;-146.07;100.00;70291.31;10402104;28;20067;-69
2023/04/13 13:51:23;;;;;;;7.30;2.05;;;;;;;-146.07;100.00;70291.31;10391791;28;20025;-69
2023/04/13 13:56:24;;;;;;;6.30;2.70;;;;;;;-146.07;100.00;70291.31;10421475;28;20071;-69
2023/04/13 14:01:24;;;;;;;3.80;1.73;;;;;;;-146.07;100.00;70291.31;10443577;28;20642;-69
2023/04/13 14:06:26;;;;;;;10.83;2.33;;;;;;;-146.07;100.00;70291.31;10464584;28;20477;-69
2023/04/13 14:11:27;;;;;;;5.63;1.80;;;;;;;-146.07;100.00;70291.31;10430505;28;20021;-69
2023/04/13 14:16:27;;;;;;;3.40;1.55;;;;;;;-146.07;100.00;70291.31;10421739;28;20041;-69
2023/04/13 14:21:28;;;;;;;3.85;1.60;;;;;;;-146.07;100.00;70291.31;10405027;28;20111;-69
2023/04/13 14:26:29;;;;;;;4.35;1.70;;;;;;;-146.07;100.00;70291.31;10415051;28;20325;-68
2023/04/13 14:31:30;;;;;;;4.35;1.95;;;;;;;-146.07;100.00;70291.31;10403118;28;20049;-69
2023/04/13 14:36:31;;;;;;;4.93;1.80;;;;;;;-146.07;100.00;70291.31;10421422;28;20029;-69
2023/04/13 14:41:31;;;;;;;2.40;1.50;;;;;;;-146.07;100.00;70291.31;10421846;28;20522;-68
2023/04/13 14:46:32;;;;;;;3.85;1.90;;;;;;;-146.07;100.00;70291.31;10421819;28;20499;-70
2023/04/13 14:51:33;;;;;;;3.30;1.45;;;;;;;-146.07;100.00;70291.31;10403429;28;20021;-70
2023/04/13 14:56:33;;;;;;;1.45;1.13;;;;;;;-146.07;100.00;70291.31;10421451;28;20037;-68
2023/04/13 15:01:34;;;;;;;5.35;1.52;;;;;;;-146.07;100.00;70291.31;10385813;28;20036;-69
2023/04/13 15:06:35;;;;;;;4.93;2.00;;;;;;;-146.07;100.00;70291.31;10417411;28;20078;-68
2023/04/13 15:11:36;;;;;;;3.53;2.22;;;;;;;-146.07;100.00;70291.31;10418237;28;20932;-69
2023/04/13 15:16:36;;;;;;;3.05;1.70;;;;;;;-146.07;100.00;70291.31;10404417;28;20041;-69
2023/04/13 15:21:36;;;;;;;3.43;1.80;;;;;;;-146.07;100.00;70291.31;10421490;28;20025;-70
2023/04/13 15:26:41;;;;;;;4.53;1.52;;;;;;;-146.07;100.00;70291.31;10407807;28;20288;-69
2023/04/13 15:31:42;;;;;;;3.55;1.75;;;;;;;-146.07;100.00;70291.31;10391592;28;20025;-68
2023/04/13 15:36:42;;;;;;;2.25;1.58;;;;;;;-146.07;100.00;70291.31;10419732;28;20025;-68
2023/04/13 15:41:43;;;;;;;2.60;1.60;;;;;;;-146.07;100.00;70291.31;10400984;28;20400;-69
2023/04/13 15:46:43;;;;;;;3.50;2.13;;;;;;;-146.07;100.00;70291.31;10413257;28;20045;-69
2023/04/13 15:51:44;;;;;;;2.33;1.42;;;;;;;-146.07;100.00;70291.31;10420425;28;20040;-69
2023/04/13 15:56:44;;;;;;;3.17;1.70;;;;;;;-146.07;100.00;70291.31;10419775;28;20464;-69
2023/04/13 16:01:47;;;;;;;6.18;1.80;;;;;;;-146.07;100.00;70291.31;10419845;28;20044;-69
2023/04/13 16:06:48;;;;;;;6.10;1.60;;;;;;;-146.07;100.00;70291.31;10381257;28;20398;-70
2023/04/13 16:11:53;;;;;;;6.53;1.85;;;;;;;-146.07;100.00;70291.31;10420417;28;20032;-70
2023/04/13 16:16:58;;;;;;;2.47;1.67;;;;;;;-146.07;100.00;70291.31;10419728;28;20052;-69
2023/04/13 16:21:59;;;;;;;4.20;1.90;;;;;;;-146.07;100.00;70291.31;10405121;28;20029;-69
2023/04/13 16:27:01;;;;;;;2.90;1.45;;;;;;;-146.07;100.00;70291.31;10426135;28;20032;-69
2023/04/13 16:32:01;;;;;;;2.83;1.60;;;;;;;-146.07;100.00;70291.31;10426460;28;20464;-69
2023/04/13 16:37:01;;;;;;;8.85;1.52;;;;;;;-146.07;100.00;70291.31;10422448;28;20024;-68
2023/04/13 16:42:02;;;;;;;2.35;1.65;;;;;;;-146.07;100.00;70291.31;10419540;28;20048;-68
2023/04/13 16:47:02;;;;;;;2.58;1.30;;;;;;;-146.07;100.00;70291.31;10425228;28;20036;-69
2023/04/13 16:52:03;;;;;;;3.92;1.92;;;;;;;-146.07;100.00;70291.31;10424080;28;20462;-68
2023/04/13 16:57:03;;;;;;;2.43;1.20;;;;;;;-146.07;100.00;70291.31;10401959;28;20550;-69
2023/04/13 17:02:04;;;;;;;4.20;1.70;;;;;;;-146.07;100.00;70291.31;10398183;28;20307;-70
2023/04/13 17:07:05;;;;;;;2.70;1.80;;;;;;;-146.07;100.00;70291.31;10392136;28;20028;-68
2023/04/13 17:12:05;;;;;;;4.70;1.75;;;;;;;-146.07;100.00;70291.31;10425084;28;20037;-69
2023/04/13 17:17:06;;;;;;;6.30;1.75;;;;;;;-146.07;100.00;70291.31;10425255;28;20076;-69
2023/04/13 17:22:06;;;;;;;3.45;1.80;;;;;;;-146.07;100.00;70291.31;10389914;28;20036;-71
2023/04/13 17:27:07;;;;;;;6.32;2.30;;;;;;;-146.07;100.00;70291.31;10423872;28;20032;-70
2023/04/13 17:32:09;;;;;;;2.83;2.30;;;;;;;-146.07;100.00;70291.31;10393909;28;20837;-71
2023/04/13 17:37:10;;;;;;;2.30;1.42;;;;;;;-146.07;100.00;70291.31;10398405;28;20291;-70
2023/04/13 17:42:10;;;;;;;4.90;1.63;;;;;;;-146.07;100.00;70291.31;10401070;28;20036;-70
2023/04/13 17:47:11;;;;;;;4.70;1.53;;;;;;;-146.07;100.00;70291.31;10399915;28;20029;-71
2023/04/13 17:52:11;;;;;;;6.15;2.00;;;;;;;-146.07;100.00;70291.31;10389985;28;20291;-71
2023/04/13 17:57:12;;;;;;;4.57;2.53;;;;;;;-146.07;100.00;70291.31;10392996;28;20025;-70
2023/04/13 18:02:12;;;;;;;3.40;1.83;;;;;;;-146.07;100.00;70291.31;10393962;28;20289;-71
2023/04/13 18:07:13;;;;;;;3.38;1.35;;;;;;;-146.07;100.00;70291.31;10376936;28;20031;-70
2023/04/13 18:12:15;;;;;;;2.63;1.73;;;;;;;-146.07;100.00;70291.31;10392562;28;20698;-70
2023/04/13 18:17:15;;;;;;;2.40;1.52;;;;;;;-146.07;100.00;70291.31;10396953;28;20064;-71
2023/04/13 18:22:16;;;;;;;2.20;1.17;;;;;;;-146.07;100.00;70291.31;10368541;28;20036;-70
2023/04/13 18:27:17;;;;;;;2.67;1.73;;;;;;;-146.07;100.00;70291.31;10418703;28;20532;-70
2023/04/13 18:32:17;;;;;;;3.50;1.50;;;;;;;-146.07;100.00;70291.31;10419242;28;20032;-70
2023/04/13 18:37:18;;;;;;;2.35;1.70;;;;;;;-146.07;100.00;70291.31;10416920;28;20353;-70
2023/04/13 18:42:18;;;;;;;9.30;4.47;;;;;;;-146.07;100.00;70291.31;10440014;28;20467;-69
2023/04/13 18:47:21;;;;;;;10.10;5.03;;;;;;;-146.07;100.00;70291.31;10425935;28;20080;-70
2023/04/13 18:52:24;;;;;;;9.93;2.35;;;;;;;-146.07;100.00;70291.31;10401705;28;20443;-69
2023/04/13 18:57:25;;;;;;;4.85;2.10;;;;;;;-146.07;100.00;70291.31;10402241;28;20040;-71
2023/04/13 19:02:25;;;;;;;3.78;2.33;;;;;;;-146.07;100.00;70291.31;10402584;28;20043;-69
2023/04/13 19:07:27;;;;;;;3.40;2.03;;;;;;;-146.07;100.00;70291.31;10421223;28;20025;-71
2023/04/13 19:12:27;;;;;;;3.47;1.70;;;;;;;-146.07;100.00;70291.31;10419998;28;20111;-69
2023/04/13 19:17:27;;;;;;;3.85;1.95;;;;;;;-146.07;100.00;70291.31;10419143;28;20132;-70
2023/04/13 19:22:28;;;;;;;3.63;1.85;;;;;;;-146.07;100.00;70291.31;10420427;28;20044;-69
2023/04/13 19:27:29;;;;;;;9.35;3.47;;;;;;;-146.07;100.00;70291.31;10420368;28;20029;-71
2023/04/13 19:32:30;;;;;;;6.07;2.42;;;;;;;-146.07;100.00;70291.31;10420299;28;20497;-70
2023/04/13 19:37:32;;;;;;;4.18;2.05;;;;;;;-146.07;100.00;70291.31;10420399;28;20475;-69
2023/04/13 19:42:32;;;;;;;6.72;2.42;;;;;;;-146.07;100.00;70291.31;10414819;28;20132;-70
2023/04/13 19:47:36;;;;;;;5.82;2.05;;;;;;;-146.07;100.00;70291.31;10399823;28;20167;-70
2023/04/13 19:52:38;;;;;;;6.95;2.72;;;;;;;-146.07;100.00;70291.31;10424878;28;20032;-70
2023/04/13 19:57:41;;;;;;;6.75;4.32;;;;;;;-146.07;100.00;70291.31;10423553;28;20488;-70
2023/04/13 20:02:49;;;;;;;8.77;4.00;;;;;;;-146.07;100.00;70291.31;10437737;28;20037;-69
2023/04/13 20:07:49;;;;;;;11.75;3.03;;;;;;;-146.07;100.00;70291.31;10423607;28;20062;-70
2023/04/13 20:12:50;;;;;;;13.55;3.35;;;;;;;-146.07;100.00;70291.31;10406603;28;20615;-71
2023/04/13 20:17:51;;;;;;;9.68;4.35;;;;;;;-146.07;100.00;70291.31;10393050;28;20058;-68
2023/04/13 20:22:52;;;;;;;10.95;4.07;;;;;;;-146.07;100.00;70291.31;10410908;28;20418;-74
2023/04/13 20:27:53;;;;;;;11.05;4.20;;;;;;;-146.07;100.00;70291.31;10422052;28;20047;-74
2023/04/13 20:32:53;;;;;;;9.45;3.55;;;;;;;-146.07;100.00;70291.31;10430043;28;20281;-74
2023/04/13 20:37:58;;;;;;;11.30;3.73;;;;;;;-146.07;100.00;70291.31;10433369;28;20066;-74
2023/04/13 20:42:59;;;;;;;6.07;3.30;;;;;;;-146.07;100.00;70291.31;10425488;28;20291;-74
2023/04/13 20:48:00;;;;;;;5.90;2.90;;;;;;;-146.07;100.00;70291.31;10441417;28;20643;-74
2023/04/13 20:53:01;;;;;;;14.00;4.28;;;;;;;-146.07;100.00;70291.31;10427137;28;20020;-77
2023/04/13 20:58:01;;;;;;;12.55;4.38;;;;;;;-146.07;100.00;70291.31;10431151;28;20051;-75
2023/04/13 21:03:02;;;;;;;8.93;4.03;;;;;;;-146.07;100.00;70291.31;10436113;28;20434;-74
2023/04/13 21:08:03;;;;;;;9.55;3.53;;;;;;;-146.07;100.00;70291.31;10429271;28;20776;-74
2023/04/13 21:13:04;;;;;;;12.88;5.93;;;;;;;-146.07;100.00;70291.31;10428053;28;20017;-73
2023/04/13 21:18:05;;;;;;;7.70;3.92;;;;;;;-146.07;100.00;70291.31;10436092;28;20059;-70
2023/04/13 21:23:05;;;;;;;11.10;4.67;;;;;;;-146.07;100.00;70291.31;10429118;28;20027;-72
2023/04/13 21:28:05;;;;;;;15.80;5.17;;;;;;;-146.07;100.00;70291.31;10428080;28;20268;-73
2023/04/13 21:33:06;;;;;;;11.82;3.85;;;;;;;-146.07;100.00;70291.31;10436542;28;20286;-69
2023/04/13 21:38:06;;;;;;;7.70;4.53;;;;;;;-146.07;100.00;70291.31;10435165;28;20131;-71
2023/04/13 21:43:07;;;;;;;9.02;4.97;;;;;;;-146.07;100.00;70291.31;10430164;28;20032;-72
2023/04/13 21:48:07;;;;;;;7.70;4.25;;;;;;;-146.07;100.00;70291.31;10436316;28;20033;-71
2023/04/13 21:53:08;;;;;;;13.23;5.35;;;;;;;-146.07;100.00;70291.31;10434662;28;20063;-76
2023/04/13 21:58:08;;;;;;;11.27;4.88;;;;;;;-146.07;100.00;70291.31;10434073;28;20029;-69
2023/04/13 22:03:11;;;;;;;11.20;4.05;;;;;;;-146.07;100.00;70291.31;10427734;28;20035;-74
2023/04/13 22:08:12;;;;;;;14.15;4.30;;;;;;;-146.07;100.00;70291.31;10432159;28;20116;-72
2023/04/13 22:13:12;;;;;;;9.43;5.00;;;;;;;-146.07;100.00;70291.31;10433514;28;20020;-73
2023/04/13 22:18:13;;;;;;;13.18;5.85;;;;;;;-146.07;100.00;70291.31;10401624;28;20514;-72
2023/04/13 22:23:14;;;;;;;12.18;5.68;;;;;;;-146.07;100.00;70291.31;10434927;28;20039;-75
2023/04/13 22:28:15;;;;;;;12.32;5.55;;;;;;;-146.07;100.00;70291.31;10437670;28;20035;-73
2023/04/13 22:33:15;;;;;;;10.07;4.85;;;;;;;-146.07;100.00;70291.31;10430861;28;20020;-74